createdAt,value
2018-12-14T00:04:39.762Z,4.6
2018-12-14T00:09:37.729Z,4.6
2018-12-14T00:14:36.233Z,4.6
2018-12-14T00:19:34.155Z,4.6
2018-12-14T00:24:32.699Z,4.5
2018-12-14T00:29:31.208Z,4.5
2018-12-14T00:34:29.682Z,4.5
2018-12-14T00:39:27.682Z,4.5
2018-12-14T00:44:25.983Z,4.4
2018-12-14T00:49:24.082Z,4.4
2018-12-14T00:54:22.861Z,4.5
2018-12-14T00:59:21.440Z,4.5
2018-12-14T01:04:19.925Z,4.5
2018-12-14T01:09:18.340Z,4.4
2018-12-14T01:14:16.724Z,4.5
2018-12-14T01:19:14.998Z,4.4
2018-12-14T01:24:13.979Z,4.2
2018-12-14T01:29:12.282Z,4.3
2018-12-14T01:34:10.550Z,4.4
2018-12-14T01:39:08.750Z,4.3
2018-12-14T01:44:07.205Z,4.4
2018-12-14T01:49:05.031Z,4.3
2018-12-14T01:54:03.685Z,4.3
2018-12-14T01:59:02.220Z,4.3
2018-12-14T02:04:01.019Z,3.7
2018-12-14T02:08:59.391Z,4.1
2018-12-14T02:13:57.787Z,4.1
2018-12-14T02:18:56.102Z,4.2
2018-12-14T02:23:54.661Z,3.5
2018-12-14T02:28:53.258Z,4.1
2018-12-14T02:33:51.817Z,4.1
2018-12-14T02:38:50.009Z,4.1
2018-12-14T02:43:48.382Z,4
2018-12-14T02:48:46.967Z,4
2018-12-14T02:53:45.479Z,3.6
2018-12-14T02:58:44.221Z,4
2018-12-14T03:08:41.737Z,4.1
2018-12-14T03:13:40.039Z,4
2018-12-14T03:18:38.733Z,4
2018-12-14T03:23:37.516Z,4
2018-12-14T03:28:35.982Z,4.1
2018-12-14T03:33:34.406Z,4
2018-12-14T03:38:33.079Z,3.6
2018-12-14T03:43:31.547Z,4
2018-12-14T03:48:30.209Z,4
2018-12-14T03:53:28.763Z,4
2018-12-14T03:58:27.498Z,4
2018-12-14T04:03:26.362Z,3.9
2018-12-14T04:08:25.106Z,3.8
2018-12-14T04:13:23.789Z,3.8
2018-12-14T04:18:22.304Z,3.6
2018-12-14T04:23:20.966Z,3.6
2018-12-14T04:28:19.555Z,3.6
2018-12-14T04:33:18.332Z,3.5
2018-12-14T04:38:16.616Z,3.5
2018-12-14T04:43:15.138Z,3.5
2018-12-14T04:48:13.641Z,1.8
2018-12-14T04:53:12.377Z,3.4
2018-12-14T04:58:10.766Z,3.5
2018-12-14T05:03:09.544Z,3.5
2018-12-14T05:08:07.824Z,3.5
2018-12-14T05:13:06.072Z,3.5
2018-12-14T05:18:04.759Z,3
2018-12-14T05:23:03.588Z,3.6
2018-12-14T05:28:02.087Z,3.6
2018-12-14T05:33:00.860Z,3.6
2018-12-14T05:37:59.564Z,3.6
2018-12-14T05:43:02.470Z,3.7
2018-12-14T05:47:57.299Z,3.7
2018-12-14T05:52:56.425Z,3.2
2018-12-14T05:57:55.225Z,3.4
2018-12-14T06:02:53.972Z,3.8
2018-12-14T06:07:52.797Z,3.4
2018-12-14T06:12:51.745Z,3.4
2018-12-14T06:17:50.239Z,3.7
2018-12-14T06:22:48.964Z,3.7
2018-12-14T06:27:47.672Z,3.7
2018-12-14T06:32:46.176Z,3.7
2018-12-14T06:37:44.946Z,3.7
2018-12-14T06:42:43.744Z,3.7
2018-12-14T06:47:42.426Z,3.7
2018-12-14T06:52:41.119Z,3.7
2018-12-14T06:57:40.007Z,3.5
2018-12-14T07:02:38.915Z,3.6
2018-12-14T07:07:38.158Z,3.1
2018-12-14T07:12:36.654Z,3.6
2018-12-14T07:17:35.244Z,3.7
2018-12-14T07:22:33.921Z,3.7
2018-12-14T07:27:32.587Z,3.7
2018-12-14T07:32:31.350Z,3.7
2018-12-14T07:37:29.943Z,3.7
2018-12-14T07:42:28.814Z,3.6
2018-12-14T07:47:27.516Z,3.7
2018-12-14T07:52:26.508Z,3.7
2018-12-14T07:57:25.333Z,3.5
2018-12-14T08:02:24.876Z,3.1
2018-12-14T08:07:23.562Z,3.6
2018-12-14T08:12:22.472Z,3.6
2018-12-14T08:17:21.100Z,3.7
2018-12-14T08:22:20.611Z,3.2
2018-12-14T08:27:19.464Z,3.5
2018-12-14T08:32:18.170Z,3.7
2018-12-14T08:37:16.859Z,3.7
2018-12-14T08:42:16.262Z,3.2
2018-12-14T08:47:14.640Z,3.7
2018-12-14T08:52:14.070Z,3.8
2018-12-14T08:57:13.072Z,3.8
2018-12-14T09:02:12.124Z,3.9
2018-12-14T09:07:11.027Z,4
2018-12-14T09:12:10.066Z,4
2018-12-14T09:17:09.149Z,4
2018-12-14T09:22:08.111Z,4
2018-12-14T09:27:07.155Z,4
2018-12-14T09:32:06.194Z,4
2018-12-14T09:37:04.902Z,4
2018-12-14T09:42:03.870Z,4
2018-12-14T09:47:02.508Z,4.1
2018-12-14T09:52:01.428Z,4
2018-12-14T09:57:00.442Z,4.1
2018-12-14T10:01:59.527Z,4.1
2018-12-14T10:06:58.854Z,3.4
2018-12-14T10:11:57.714Z,4.2
2018-12-14T10:16:56.669Z,4.2
2018-12-14T10:21:55.836Z,4.2
2018-12-14T10:26:54.874Z,4.2
2018-12-14T10:31:53.601Z,4.2
2018-12-14T10:36:52.496Z,4.3
2018-12-14T10:41:51.698Z,4.3
2018-12-14T10:46:50.654Z,4.3
2018-12-14T10:51:49.792Z,4.3
2018-12-14T10:56:48.417Z,4.3
2018-12-14T11:01:47.329Z,4.3
2018-12-14T11:06:46.702Z,4.3
2018-12-14T11:11:45.749Z,4.3
2018-12-14T11:16:45.135Z,3.4
2018-12-14T11:21:44.170Z,4.3
2018-12-14T11:26:42.999Z,4.3
2018-12-14T11:31:42.300Z,4.3
2018-12-14T11:36:41.459Z,4.4
2018-12-14T11:41:40.669Z,4.4
2018-12-14T11:46:39.839Z,4.4
2018-12-14T11:51:38.872Z,4.4
2018-12-14T11:56:37.794Z,4.4
2018-12-14T12:01:37.302Z,4.4
2018-12-14T12:06:36.744Z,4.4
2018-12-14T12:11:35.909Z,4.4
2018-12-14T12:16:35.343Z,4.4
2018-12-14T12:21:34.525Z,4.5
2018-12-14T12:26:33.866Z,4.5
2018-12-14T12:31:33.232Z,3.9
2018-12-14T12:36:32.227Z,4.5
2018-12-14T12:41:31.806Z,4.4
2018-12-14T12:46:31.265Z,4.4
2018-12-14T12:51:31.293Z,3.1
2018-12-14T12:56:30.193Z,4.5
2018-12-14T13:01:29.892Z,4.5
2018-12-14T13:06:30.036Z,4.5
2018-12-14T13:11:30.117Z,3.8
2018-12-14T13:16:30.200Z,4.4
2018-12-14T13:21:30.476Z,4.4
2018-12-14T13:26:30.968Z,4.1
2018-12-14T13:31:30.947Z,4.4
2018-12-14T13:36:30.853Z,4.4
